createdAt,value
2019-05-26T00:00:11.567Z,9.40
2019-05-26T00:02:40.968Z,9.30
2019-05-26T00:05:10.556Z,9.30
2019-05-26T00:07:39.964Z,9.30
2019-05-26T00:10:10.290Z,9.30
2019-05-26T00:12:39.886Z,9.30
2019-05-26T00:15:10.496Z,9.40
2019-05-26T00:17:39.897Z,9.40
2019-05-26T00:20:10.487Z,9.30
2019-05-26T00:22:39.835Z,9.40
2019-05-26T00:25:09.941Z,9.40
2019-05-26T00:27:39.349Z,9.50
2019-05-26T00:30:10.498Z,9.50
2019-05-26T00:32:39.895Z,9.50
2019-05-26T00:35:10.189Z,9.50
2019-05-26T00:37:49.088Z,9.60
2019-05-26T00:40:12.828Z,9.60
2019-05-26T00:42:42.227Z,9.60
2019-05-26T00:45:11.926Z,9.60
2019-05-26T00:47:41.472Z,9.60
2019-05-26T00:50:11.285Z,9.50
2019-05-26T00:52:40.967Z,9.50
2019-05-26T00:55:10.569Z,9.50
2019-05-26T00:57:39.983Z,9.50
2019-05-26T01:00:13.172Z,9.50
2019-05-26T01:02:42.653Z,9.50
2019-05-26T01:05:12.556Z,9.50
2019-05-26T01:07:42.031Z,9.50
2019-05-26T01:10:12.013Z,9.50
2019-05-26T01:12:41.353Z,9.50
2019-05-26T01:15:11.429Z,9.50
2019-05-26T01:17:40.774Z,9.50
2019-05-26T01:20:10.672Z,9.50
2019-05-26T01:22:40.045Z,9.50
2019-05-26T01:25:09.589Z,9.60
2019-05-26T01:27:38.933Z,9.60
2019-05-26T01:30:09.211Z,9.60
2019-05-26T01:32:38.709Z,9.70
2019-05-26T01:35:08.471Z,9.70
2019-05-26T01:37:39.446Z,9.70
2019-05-26T01:40:09.834Z,9.70
2019-05-26T01:42:39.178Z,9.70
2019-05-26T01:45:09.094Z,9.70
2019-05-26T01:47:38.500Z,9.70
2019-05-26T01:50:09.389Z,9.70
2019-05-26T01:52:38.727Z,9.70
2019-05-26T01:55:08.281Z,9.70
2019-05-26T01:57:37.779Z,9.80
2019-05-26T02:00:08.437Z,9.80
2019-05-26T02:02:37.952Z,9.80
2019-05-26T02:05:07.527Z,9.90
2019-05-26T02:07:36.919Z,9.90
2019-05-26T02:10:09.378Z,9.90
2019-05-26T02:12:38.817Z,9.90
2019-05-26T02:15:09.572Z,9.90
2019-05-26T02:17:39.089Z,9.90
2019-05-26T02:20:10.044Z,9.90
2019-05-26T02:22:39.424Z,9.90
2019-05-26T02:25:10.580Z,9.90
2019-05-26T02:27:39.968Z,9.80
2019-05-26T02:30:11.090Z,9.80
2019-05-26T02:32:40.536Z,9.70
2019-05-26T02:35:10.897Z,9.60
2019-05-26T02:37:40.405Z,9.50
2019-05-26T02:40:10.966Z,9.40
2019-05-26T02:42:40.533Z,9.40
2019-05-26T02:45:12.409Z,9.30
2019-05-26T02:47:41.906Z,9.20
2019-05-26T02:50:13.673Z,9.10
2019-05-26T02:52:43.046Z,9.10
2019-05-26T02:55:14.298Z,9.00
2019-05-26T02:57:43.740Z,8.90
2019-05-26T03:00:15.494Z,8.90
2019-05-26T03:02:45.804Z,8.80
2019-05-26T03:05:15.562Z,8.80
2019-05-26T03:07:45.387Z,8.80
2019-05-26T03:10:15.830Z,8.70
2019-05-26T03:12:46.800Z,8.70
2019-05-26T03:15:17.757Z,8.70
2019-05-26T03:17:50.260Z,8.80
2019-05-26T03:20:19.845Z,8.80
2019-05-26T03:22:50.808Z,8.70
2019-05-26T03:25:20.297Z,8.60
2019-05-26T03:27:49.659Z,8.60
2019-05-26T03:30:19.680Z,8.50
2019-05-26T03:32:49.131Z,8.50
2019-05-26T03:35:18.610Z,8.50
2019-05-26T03:37:47.996Z,8.50
2019-05-26T03:40:17.470Z,8.50
2019-05-26T03:42:46.844Z,8.60
2019-05-26T03:45:26.545Z,8.70
2019-05-26T03:47:55.965Z,8.80
2019-05-26T03:50:25.392Z,8.80
2019-05-26T03:52:54.756Z,8.90
2019-05-26T03:55:24.100Z,9.00
2019-05-26T03:57:53.465Z,9.40
2019-05-26T04:00:22.966Z,9.90
2019-05-26T04:02:52.321Z,10.30
2019-05-26T04:05:21.661Z,10.80
2019-05-26T04:07:51.701Z,11.20
2019-05-26T04:10:22.685Z,11.60
2019-05-26T04:12:52.190Z,12.00
2019-05-26T04:15:21.541Z,12.50
2019-05-26T04:17:50.914Z,12.90
2019-05-26T04:20:20.317Z,13.20
2019-05-26T04:22:49.773Z,13.50
2019-05-26T04:25:19.160Z,13.60
2019-05-26T04:27:48.606Z,13.50
2019-05-26T04:30:18.018Z,13.20
2019-05-26T04:32:47.474Z,13.00
2019-05-26T04:35:16.965Z,12.50
2019-05-26T04:37:46.421Z,12.20
2019-05-26T04:40:26.395Z,12.10
2019-05-26T04:42:46.938Z,12.00
2019-05-26T04:45:16.432Z,12.00
2019-05-26T04:47:45.798Z,12.00
2019-05-26T04:50:15.338Z,11.90
2019-05-26T04:53:04.366Z,11.90
2019-05-26T04:55:16.028Z,11.90
2019-05-26T04:57:45.382Z,11.90
2019-05-26T05:00:17.370Z,11.90
2019-05-26T05:02:46.721Z,12.00
2019-05-26T05:05:16.305Z,12.10
2019-05-26T05:07:45.653Z,12.20
2019-05-26T05:10:15.566Z,12.20
2019-05-26T05:12:45.119Z,12.30
2019-05-26T05:15:14.902Z,12.20
2019-05-26T05:17:44.244Z,12.40
2019-05-26T05:20:13.957Z,12.60
2019-05-26T05:22:43.383Z,12.80
2019-05-26T05:25:15.109Z,13.10
2019-05-26T05:27:44.123Z,13.30
2019-05-26T05:30:14.003Z,13.50
2019-05-26T05:32:43.369Z,13.80
2019-05-26T05:35:13.553Z,13.90
2019-05-26T05:37:42.887Z,14.10
2019-05-26T05:40:13.678Z,14.30
2019-05-26T05:42:43.026Z,14.50
2019-05-26T05:45:13.597Z,14.50
2019-05-26T05:47:42.966Z,14.60
2019-05-26T05:50:12.938Z,14.70
2019-05-26T05:52:42.295Z,14.60
2019-05-26T05:55:13.412Z,14.70
2019-05-26T05:57:42.750Z,14.90
2019-05-26T06:00:13.433Z,15.00
2019-05-26T06:02:42.915Z,15.00
2019-05-26T06:05:13.762Z,14.90
2019-05-26T06:07:43.450Z,14.90
2019-05-26T06:10:13.660Z,14.80
2019-05-26T06:12:43.070Z,14.80
2019-05-26T06:15:16.064Z,14.90
2019-05-26T06:17:45.497Z,15.10
2019-05-26T06:20:16.088Z,15.20
2019-05-26T06:22:45.436Z,15.30
2019-05-26T06:25:15.364Z,15.40
2019-05-26T06:27:44.777Z,15.50
2019-05-26T06:30:14.462Z,15.60
2019-05-26T06:32:43.886Z,15.70
2019-05-26T06:35:13.569Z,15.90
2019-05-26T06:37:42.916Z,16.00
2019-05-26T06:40:13.535Z,16.20
2019-05-26T06:42:42.901Z,16.30
2019-05-26T06:45:12.788Z,16.40
2019-05-26T06:47:42.136Z,16.40
2019-05-26T06:50:13.104Z,16.40
2019-05-26T06:52:42.479Z,16.50
2019-05-26T06:55:12.339Z,16.60
2019-05-26T06:57:41.751Z,16.70
2019-05-26T07:00:13.932Z,16.80
2019-05-26T07:02:43.285Z,16.80
2019-05-26T07:05:12.815Z,16.80
2019-05-26T07:07:42.167Z,16.90
2019-05-26T07:10:11.886Z,17.00
2019-05-26T07:12:41.326Z,17.10
2019-05-26T07:15:13.068Z,17.20
2019-05-26T07:17:42.422Z,17.20
2019-05-26T07:20:13.606Z,17.40
2019-05-26T07:22:43.039Z,17.50
2019-05-26T07:25:12.764Z,17.60
2019-05-26T07:27:42.224Z,17.60
2019-05-26T07:30:12.330Z,17.70
2019-05-26T07:32:41.677Z,17.80
2019-05-26T07:35:13.032Z,17.80
2019-05-26T07:37:42.384Z,17.90
2019-05-26T07:40:12.147Z,18.00
2019-05-26T07:42:41.476Z,18.20
2019-05-26T07:45:12.260Z,18.40
2019-05-26T07:47:41.628Z,18.40
2019-05-26T07:50:11.276Z,18.40
2019-05-26T07:52:40.945Z,18.50
2019-05-26T07:55:10.563Z,18.60
2019-05-26T07:57:39.943Z,18.60
2019-05-26T08:00:10.704Z,18.80
2019-05-26T08:02:40.183Z,19.00
2019-05-26T08:05:09.711Z,19.10
2019-05-26T08:07:39.074Z,19.20
2019-05-26T08:10:09.473Z,19.30
2019-05-26T08:12:38.864Z,19.20
2019-05-26T08:15:10.033Z,19.20
2019-05-26T08:17:39.606Z,19.30
2019-05-26T08:20:10.997Z,19.40
2019-05-26T08:22:40.551Z,19.60
2019-05-26T08:25:10.406Z,19.50
2019-05-26T08:27:39.864Z,19.60
2019-05-26T08:30:09.833Z,19.70
2019-05-26T08:32:39.305Z,19.70
2019-05-26T08:35:09.529Z,19.90
2019-05-26T08:37:39.058Z,19.90
2019-05-26T08:40:18.873Z,20.00
2019-05-26T08:42:51.151Z,20.20
2019-05-26T08:45:22.759Z,20.40
2019-05-26T08:47:52.881Z,20.50
2019-05-26T08:50:23.108Z,20.50
2019-05-26T08:52:52.493Z,20.60
2019-05-26T08:55:22.780Z,21.00
2019-05-26T08:57:52.187Z,21.10
2019-05-26T09:00:21.842Z,21.10
2019-05-26T09:02:51.291Z,21.10
2019-05-26T09:05:20.880Z,21.00
2019-05-26T09:07:50.266Z,20.90
2019-05-26T09:10:20.643Z,21.10
2019-05-26T09:13:00.348Z,21.40
2019-05-26T09:15:21.462Z,21.40
2019-05-26T09:17:50.900Z,21.40
2019-05-26T09:20:20.884Z,21.40
2019-05-26T09:22:50.391Z,21.60
2019-05-26T09:25:19.900Z,21.90
2019-05-26T09:27:49.273Z,22.00
2019-05-26T09:30:18.967Z,21.90
2019-05-26T09:32:48.401Z,22.10
2019-05-26T09:35:18.875Z,22.30
2019-05-26T09:37:48.241Z,22.40
2019-05-26T09:40:17.820Z,22.40
2019-05-26T09:42:47.299Z,22.30
2019-05-26T09:45:17.416Z,22.60
2019-05-26T09:47:46.870Z,22.70
2019-05-26T09:50:16.620Z,22.90
2019-05-26T09:52:45.996Z,22.60
2019-05-26T09:55:17.564Z,22.40
2019-05-26T09:57:46.936Z,22.50
2019-05-26T10:00:17.036Z,22.80
2019-05-26T10:02:46.481Z,23.10
2019-05-26T10:05:16.053Z,23.60
2019-05-26T10:07:45.518Z,23.80
2019-05-26T10:10:15.315Z,23.70
2019-05-26T10:12:44.788Z,23.90
2019-05-26T10:15:14.959Z,24.20
2019-05-26T10:17:44.553Z,24.50
2019-05-26T10:20:15.227Z,24.60
2019-05-26T10:22:44.591Z,24.30
2019-05-26T10:25:14.085Z,24.10
2019-05-26T10:27:43.571Z,24.00
2019-05-26T10:30:15.332Z,23.90
2019-05-26T10:32:44.767Z,23.80
2019-05-26T10:35:14.842Z,23.80
2019-05-26T10:37:44.187Z,23.90
2019-05-26T10:40:14.686Z,23.80
2019-05-26T10:42:44.120Z,23.90
2019-05-26T10:45:14.387Z,23.80
2019-05-26T10:47:43.927Z,23.50
2019-05-26T10:50:13.777Z,23.40
2019-05-26T10:52:43.307Z,23.30
2019-05-26T10:55:15.653Z,23.00
2019-05-26T10:57:45.094Z,22.90
2019-05-26T11:00:17.896Z,22.80
2019-05-26T11:02:47.481Z,22.80
2019-05-26T11:05:17.013Z,22.60
2019-05-26T11:07:46.346Z,22.50
2019-05-26T11:10:16.774Z,22.60
2019-05-26T11:12:46.254Z,22.90
2019-05-26T11:15:15.942Z,23.00
2019-05-26T11:17:45.291Z,22.90
2019-05-26T11:20:15.491Z,23.10
2019-05-26T11:22:44.907Z,23.30
2019-05-26T11:25:14.697Z,23.30
2019-05-26T11:27:44.060Z,23.50
2019-05-26T11:30:16.299Z,23.80
2019-05-26T11:32:45.706Z,24.10
2019-05-26T11:35:15.784Z,24.10
2019-05-26T11:37:45.115Z,24.20
2019-05-26T11:40:15.803Z,24.10
2019-05-26T11:42:45.410Z,24.00
2019-05-26T11:45:14.914Z,24.20
2019-05-26T11:47:44.333Z,24.30
2019-05-26T11:50:13.921Z,23.90
2019-05-26T11:52:43.359Z,23.70
2019-05-26T11:55:13.117Z,23.80
2019-05-26T11:57:42.484Z,23.90
2019-05-26T12:00:15.591Z,24.00
2019-05-26T12:02:46.455Z,24.20
2019-05-26T12:05:17.734Z,24.50
2019-05-26T12:07:47.218Z,24.30
2019-05-26T12:10:17.095Z,23.90
2019-05-26T12:12:46.435Z,24.00
2019-05-26T12:15:17.221Z,24.40
2019-05-26T12:17:46.694Z,24.50
2019-05-26T12:20:17.194Z,24.50
2019-05-26T12:22:46.544Z,24.30
2019-05-26T12:25:16.459Z,24.40
2019-05-26T12:27:45.807Z,24.50
2019-05-26T12:30:17.041Z,24.40
2019-05-26T12:32:46.447Z,24.60
2019-05-26T12:35:16.318Z,24.50
2019-05-26T12:37:48.236Z,24.30
2019-05-26T12:40:17.186Z,24.30
2019-05-26T12:42:46.695Z,24.50
2019-05-26T12:45:16.690Z,24.60
2019-05-26T12:47:46.132Z,25.00
2019-05-26T12:50:16.130Z,25.20
2019-05-26T12:52:45.643Z,25.10
2019-05-26T12:55:17.188Z,25.30
2019-05-26T12:57:46.611Z,25.50
2019-05-26T13:00:17.827Z,25.70
2019-05-26T13:02:47.337Z,25.80
2019-05-26T13:05:18.538Z,25.70
2019-05-26T13:07:47.959Z,25.50
2019-05-26T13:10:17.875Z,25.70
2019-05-26T13:12:47.233Z,25.60
2019-05-26T13:15:17.262Z,25.50
2019-05-26T13:17:46.618Z,25.40
2019-05-26T13:20:16.591Z,25.30
2019-05-26T13:22:45.931Z,25.00
2019-05-26T13:25:16.017Z,24.90
2019-05-26T13:27:45.367Z,25.00
2019-05-26T13:30:19.679Z,24.90
2019-05-26T13:32:49.201Z,24.80
2019-05-26T13:35:19.136Z,24.70
2019-05-26T13:37:48.659Z,24.80
2019-05-26T13:40:18.173Z,24.70
2019-05-26T13:42:47.566Z,25.00
2019-05-26T13:45:22.866Z,25.10
2019-05-26T13:47:50.263Z,25.20
2019-05-26T13:50:22.310Z,25.10
2019-05-26T13:52:51.654Z,25.30
2019-05-26T13:55:21.173Z,25.30
2019-05-26T13:57:50.519Z,25.40
2019-05-26T14:00:22.187Z,25.30
2019-05-26T14:02:51.665Z,25.40
2019-05-26T14:05:21.251Z,25.30
2019-05-26T14:07:50.657Z,25.20
2019-05-26T14:10:35.983Z,25.00
2019-05-26T14:13:07.448Z,24.70
2019-05-26T14:15:38.949Z,24.40
2019-05-26T14:18:08.412Z,24.30
2019-05-26T14:20:40.789Z,24.30
2019-05-26T14:23:10.874Z,24.80
2019-05-26T14:25:40.513Z,25.10
2019-05-26T14:28:09.995Z,25.30
2019-05-26T14:30:39.518Z,25.50
2019-05-26T14:33:08.868Z,25.60
2019-05-26T14:35:38.311Z,25.60
2019-05-26T14:38:07.762Z,25.60
2019-05-26T14:40:37.112Z,25.70
2019-05-26T14:43:06.765Z,25.60
2019-05-26T14:45:37.744Z,25.50
2019-05-26T14:48:07.866Z,25.50
2019-05-26T14:50:40.488Z,25.40
2019-05-26T14:53:08.399Z,25.40
2019-05-26T14:55:37.759Z,25.40
2019-05-26T14:58:15.773Z,25.50
2019-05-26T15:00:38.311Z,25.60
2019-05-26T15:03:07.773Z,25.80
2019-05-26T15:05:37.121Z,25.60
2019-05-26T15:08:06.490Z,25.40
2019-05-26T15:10:35.843Z,25.40
2019-05-26T15:13:05.295Z,25.30
2019-05-26T15:15:35.231Z,25.00
2019-05-26T15:18:04.876Z,24.80
2019-05-26T15:20:34.365Z,25.00
2019-05-26T15:23:03.755Z,25.00
2019-05-26T15:25:33.241Z,25.10
2019-05-26T15:28:02.683Z,25.10
2019-05-26T15:30:32.083Z,25.10
2019-05-26T15:33:01.457Z,25.00
2019-05-26T15:35:31.986Z,25.00
2019-05-26T15:38:01.369Z,24.90
2019-05-26T15:40:30.803Z,24.70
2019-05-26T15:43:00.182Z,24.70
2019-05-26T15:45:29.595Z,24.80
2019-05-26T15:47:58.981Z,25.10
2019-05-26T15:50:28.357Z,25.20
2019-05-26T15:52:57.717Z,25.30
2019-05-26T15:55:27.192Z,25.40
2019-05-26T15:57:56.561Z,25.50
2019-05-26T16:00:26.130Z,26.10
2019-05-26T16:02:55.562Z,26.90
2019-05-26T16:05:25.036Z,27.80
2019-05-26T16:07:54.544Z,29.00
2019-05-26T16:10:23.947Z,29.70
2019-05-26T16:12:53.327Z,29.90
2019-05-26T16:15:22.817Z,31.60
2019-05-26T16:17:52.379Z,31.30
2019-05-26T16:20:21.877Z,30.50
2019-05-26T16:22:51.592Z,30.40
2019-05-26T16:25:21.057Z,30.10
2019-05-26T16:27:50.501Z,30.10
2019-05-26T16:30:19.998Z,30.60
2019-05-26T16:32:51.015Z,30.40
2019-05-26T16:35:20.487Z,30.20
2019-05-26T16:37:50.009Z,30.30
2019-05-26T16:40:19.570Z,30.80
2019-05-26T16:42:48.966Z,31.50
2019-05-26T16:45:18.519Z,31.40
2019-05-26T16:47:47.867Z,31.40
2019-05-26T16:50:17.395Z,31.10
2019-05-26T16:52:46.748Z,31.20
2019-05-26T16:55:16.246Z,30.80
2019-05-26T16:57:45.721Z,31.00
2019-05-26T17:00:15.291Z,31.10
2019-05-26T17:02:44.687Z,31.50
2019-05-26T17:05:14.168Z,32.00
2019-05-26T17:07:43.562Z,31.50
2019-05-26T17:10:13.082Z,31.50
2019-05-26T17:12:42.413Z,31.10
2019-05-26T17:15:12.032Z,31.50
2019-05-26T17:17:41.376Z,31.50
2019-05-26T17:20:11.473Z,31.60
2019-05-26T17:22:40.824Z,31.10
2019-05-26T17:25:10.701Z,31.00
2019-05-26T17:27:40.064Z,31.00
2019-05-26T17:30:10.053Z,30.50
2019-05-26T17:32:39.568Z,30.20
2019-05-26T17:35:09.248Z,30.10
2019-05-26T17:37:38.661Z,30.00
2019-05-26T17:40:08.675Z,29.50
2019-05-26T17:42:38.107Z,29.20
2019-05-26T17:45:08.707Z,29.50
2019-05-26T17:47:38.131Z,29.30
2019-05-26T17:50:08.716Z,29.50
2019-05-26T17:52:38.057Z,29.20
2019-05-26T17:55:09.810Z,29.10
2019-05-26T17:57:39.246Z,28.40
2019-05-26T18:00:16.222Z,27.40
2019-05-26T18:05:46.236Z,26.40
2019-05-26T18:08:15.632Z,25.50
2019-05-26T18:10:45.039Z,24.80
2019-05-26T18:13:14.449Z,24.30
2019-05-26T18:15:43.905Z,23.80
2019-05-26T18:18:13.260Z,23.00
2019-05-26T18:20:42.852Z,22.40
2019-05-26T18:23:12.212Z,21.70
2019-05-26T18:25:41.661Z,21.30
2019-05-26T18:28:11.019Z,20.80
2019-05-26T18:30:40.451Z,20.40
2019-05-26T18:33:09.848Z,20.00
2019-05-26T18:35:39.291Z,19.70
2019-05-26T18:38:08.651Z,19.40
2019-05-26T18:40:38.152Z,19.30
2019-05-26T18:43:09.445Z,19.10
2019-05-26T18:45:39.266Z,18.90
2019-05-26T18:48:08.942Z,18.70
2019-05-26T18:50:38.374Z,18.40
2019-05-26T18:53:07.818Z,18.20
2019-05-26T18:55:37.264Z,17.90
2019-05-26T18:58:06.604Z,17.60
2019-05-26T19:00:36.272Z,17.40
2019-05-26T19:03:06.209Z,17.20
2019-05-26T19:05:38.324Z,17.00
2019-05-26T19:08:07.126Z,16.90
2019-05-26T19:10:36.567Z,16.70
2019-05-26T19:13:06.202Z,16.60
2019-05-26T19:15:35.594Z,16.40
2019-05-26T19:18:18.761Z,16.30
2019-05-26T19:20:36.407Z,16.10
2019-05-26T19:23:05.770Z,16.00
2019-05-26T19:25:36.146Z,15.90
2019-05-26T19:28:05.684Z,15.80
2019-05-26T19:30:35.241Z,15.70
2019-05-26T19:33:04.693Z,15.60
2019-05-26T19:35:34.069Z,15.50
2019-05-26T19:38:03.484Z,15.30
2019-05-26T19:40:32.874Z,15.20
2019-05-26T19:43:02.218Z,15.10
2019-05-26T19:45:31.638Z,15.00
2019-05-26T19:48:00.987Z,14.90
2019-05-26T19:50:30.422Z,14.80
2019-05-26T19:52:59.778Z,14.60
2019-05-26T19:55:30.042Z,14.50
2019-05-26T19:57:59.648Z,14.40
2019-05-26T20:00:30.924Z,14.30
2019-05-26T20:03:00.675Z,14.20
2019-05-26T20:05:30.054Z,14.00
2019-05-26T20:07:59.576Z,13.90
2019-05-26T20:10:29.001Z,13.90
2019-05-26T20:12:58.407Z,13.80
2019-05-26T20:15:28.013Z,13.70
2019-05-26T20:17:57.422Z,13.60
2019-05-26T20:20:26.854Z,13.60
2019-05-26T20:22:56.308Z,13.50
2019-05-26T20:25:25.968Z,13.50
2019-05-26T20:27:55.391Z,13.50
2019-05-26T20:30:24.954Z,13.50
2019-05-26T20:32:54.490Z,13.40
2019-05-26T20:35:23.985Z,13.40
2019-05-26T20:37:53.730Z,13.30
2019-05-26T20:40:23.257Z,13.20
2019-05-26T20:42:52.764Z,13.20
2019-05-26T20:45:22.266Z,13.10
2019-05-26T20:47:51.926Z,13.00
2019-05-26T20:50:29.257Z,13.00
2019-05-26T20:52:52.977Z,12.90
2019-05-26T20:55:22.421Z,12.80
2019-05-26T20:57:52.290Z,12.80
2019-05-26T21:00:22.349Z,12.70
2019-05-26T21:02:51.714Z,12.60
2019-05-26T21:05:21.267Z,12.60
2019-05-26T21:07:50.717Z,12.50
2019-05-26T21:10:20.410Z,12.50
2019-05-26T21:12:50.125Z,12.40
2019-05-26T21:15:19.626Z,12.40
2019-05-26T21:17:49.037Z,12.30
2019-05-26T21:20:18.683Z,12.20
2019-05-26T21:22:48.205Z,12.10
2019-05-26T21:25:17.682Z,12.10
2019-05-26T21:27:47.078Z,12.00
2019-05-26T21:30:16.978Z,12.00
2019-05-26T21:32:46.439Z,11.90
2019-05-26T21:35:16.200Z,11.90
2019-05-26T21:37:45.585Z,11.80
2019-05-26T21:40:15.385Z,11.80
2019-05-26T21:42:44.755Z,11.80
2019-05-26T21:45:14.635Z,11.80
2019-05-26T21:47:44.021Z,11.80
2019-05-26T21:50:13.792Z,11.90
2019-05-26T21:52:43.255Z,11.90
2019-05-26T21:55:13.028Z,12.00
2019-05-26T21:57:42.413Z,12.20
2019-05-26T22:00:16.936Z,12.30
2019-05-26T22:02:46.319Z,12.40
2019-05-26T22:05:15.887Z,12.40
2019-05-26T22:07:45.320Z,12.50
2019-05-26T22:10:14.897Z,12.50
2019-05-26T22:12:44.280Z,12.60
2019-05-26T22:15:14.436Z,12.60
2019-05-26T22:17:43.908Z,12.60
2019-05-26T22:20:13.563Z,12.60
2019-05-26T22:22:42.929Z,12.60
2019-05-26T22:25:13.140Z,12.50
2019-05-26T22:27:42.527Z,12.50
2019-05-26T22:30:12.284Z,12.40
2019-05-26T22:32:41.680Z,12.40
2019-05-26T22:35:11.151Z,12.30
2019-05-26T22:37:40.522Z,12.20
2019-05-26T22:40:10.282Z,12.10
2019-05-26T22:42:39.666Z,12.00
2019-05-26T22:45:10.412Z,12.00
2019-05-26T22:47:39.782Z,11.90
2019-05-26T22:50:10.731Z,11.80
2019-05-26T22:52:40.202Z,11.70
2019-05-26T22:55:09.764Z,11.60
2019-05-26T22:57:39.119Z,11.50
2019-05-26T23:00:13.029Z,11.40
2019-05-26T23:02:42.534Z,11.30
2019-05-26T23:05:12.120Z,11.20
2019-05-26T23:07:41.476Z,11.10
2019-05-26T23:10:11.462Z,11.10
2019-05-26T23:12:40.878Z,11.00
2019-05-26T23:15:11.159Z,11.00
2019-05-26T23:17:40.673Z,11.00
2019-05-26T23:20:10.895Z,11.00
2019-05-26T23:22:40.242Z,11.00
2019-05-26T23:25:10.231Z,10.90
2019-05-26T23:27:39.649Z,10.90
2019-05-26T23:30:09.936Z,10.80
2019-05-26T23:32:39.359Z,10.80
2019-05-26T23:35:08.959Z,10.70
2019-05-26T23:37:38.367Z,10.70
2019-05-26T23:40:08.085Z,10.70
2019-05-26T23:42:37.435Z,10.60
2019-05-26T23:45:10.227Z,10.60
2019-05-26T23:47:39.570Z,10.50
2019-05-26T23:50:09.257Z,10.50
2019-05-26T23:52:38.741Z,10.50
2019-05-26T23:55:08.551Z,10.40
2019-05-26T23:57:38.027Z,10.40
